Time;durP1;ratioP1;P1;durP2;ratioP2;P2;SDS_P1;SDS_P2;PMS_P1;PMS_P2;Temp;Humidity;BMP_temperature;BMP_pressure;BME280_temperature;BME280_humidity;BME280_pressure;Samples;Min_cycle;Max_cycle;Signal;HPM_P1;HPM_P2
2022/11/20 00:02:08;;;;;;;13.47;7.80;;;;;;;;;;5004586;28;20233;-62
2022/11/20 00:04:33;;;;;;;12.30;7.90;;;;;;;;;;5002685;28;20224;-62
2022/11/20 00:06:58;;;;;;;12.27;7.97;;;;;;;;;;5002471;28;20223;-62
2022/11/20 00:09:23;;;;;;;14.73;8.00;;;;;;;;;;5001438;28;20239;-62
2022/11/20 00:11:49;;;;;;;13.80;8.33;;;;;;;;;;5007098;28;20208;-62
2022/11/20 00:14:14;;;;;;;12.47;8.00;;;;;;;;;;5010563;28;20327;-62
2022/11/20 00:16:39;;;;;;;13.87;8.40;;;;;;;;;;5001626;28;20228;-62
2022/11/20 00:19:04;;;;;;;14.20;8.07;;;;;;;;;;5001976;28;20220;-62
2022/11/20 00:21:30;;;;;;;13.00;8.20;;;;;;;;;;5002437;28;20621;-62
2022/11/20 00:23:56;;;;;;;12.17;7.77;;;;;;;;;;4999795;28;20224;-62
2022/11/20 00:26:22;;;;;;;13.03;7.77;;;;;;;;;;4994503;28;20208;-62
2022/11/20 00:28:49;;;;;;;13.83;8.67;;;;;;;;;;4993428;28;20208;-62
2022/11/20 00:31:14;;;;;;;13.27;8.50;;;;;;;;;;5003870;28;20310;-62
2022/11/20 00:33:40;;;;;;;13.70;8.70;;;;;;;;;;5007528;28;20298;-62
2022/11/20 00:36:07;;;;;;;13.33;8.20;;;;;;;;;;5006596;28;20632;-62
2022/11/20 00:38:32;;;;;;;13.90;8.50;;;;;;;;;;5024593;28;20424;-62
2022/11/20 00:40:58;;;;;;;14.03;8.37;;;;;;;;;;5009128;28;20220;-62
2022/11/20 00:43:24;;;;;;;12.40;8.13;;;;;;;;;;5004632;28;20240;-61
2022/11/20 00:45:49;;;;;;;18.50;8.43;;;;;;;;;;5005885;28;20219;-62
2022/11/20 00:48:14;;;;;;;13.10;7.70;;;;;;;;;;4998274;28;20437;-62
2022/11/20 00:50:40;;;;;;;11.90;7.53;;;;;;;;;;4996894;28;20212;-62
2022/11/20 00:53:06;;;;;;;13.90;8.67;;;;;;;;;;4997092;28;20209;-62
2022/11/20 00:55:31;;;;;;;13.23;8.47;;;;;;;;;;5004837;28;20266;-61
2022/11/20 00:57:56;;;;;;;13.80;8.57;;;;;;;;;;5004974;28;20251;-62
2022/11/20 01:00:21;;;;;;;15.33;8.57;;;;;;;;;;5004985;28;21329;-62
2022/11/20 01:02:47;;;;;;;13.40;8.13;;;;;;;;;;5005012;28;20712;-62
2022/11/20 01:05:12;;;;;;;14.10;8.53;;;;;;;;;;5012319;28;20227;-62
2022/11/20 01:07:37;;;;;;;12.80;8.10;;;;;;;;;;5018094;28;20621;-62
2022/11/20 01:10:03;;;;;;;13.70;8.97;;;;;;;;;;5020813;28;20212;-61
2022/11/20 01:12:28;;;;;;;15.13;9.00;;;;;;;;;;5028202;28;20203;-62
2022/11/20 01:14:54;;;;;;;15.30;9.23;;;;;;;;;;5033791;28;20204;-62
2022/11/20 01:17:19;;;;;;;14.80;9.33;;;;;;;;;;5033974;28;20215;-62
2022/11/20 01:19:44;;;;;;;13.97;8.73;;;;;;;;;;5033549;28;20679;-62
2022/11/20 01:22:09;;;;;;;13.43;8.20;;;;;;;;;;5033802;28;20231;-62
2022/11/20 01:24:35;;;;;;;14.80;8.80;;;;;;;;;;5034578;28;20208;-62
2022/11/20 01:27:00;;;;;;;14.37;8.90;;;;;;;;;;5033781;28;20211;-61
2022/11/20 01:29:25;;;;;;;14.00;8.97;;;;;;;;;;5033864;28;20294;-62
2022/11/20 01:31:52;;;;;;;14.33;8.77;;;;;;;;;;5034269;28;20230;-61
2022/11/20 01:34:18;;;;;;;13.07;8.33;;;;;;;;;;5032864;28;20204;-61
2022/11/20 01:36:43;;;;;;;14.43;9.00;;;;;;;;;;5034328;28;20216;-61
2022/11/20 01:39:13;;;;;;;13.43;8.73;;;;;;;;;;5029890;28;20247;-62
2022/11/20 01:44:39;;;;;;;15.80;8.93;;;;;;;;;;5033570;28;20218;-62
2022/11/20 01:47:05;;;;;;;15.07;9.17;;;;;;;;;;5029609;28;20211;-62
2022/11/20 01:49:33;;;;;;;15.10;9.17;;;;;;;;;;5015965;28;20204;-62
2022/11/20 01:52:01;;;;;;;14.13;8.40;;;;;;;;;;5033911;28;20215;-61
2022/11/20 01:54:41;;;;;;;16.53;8.80;;;;;;;;;;5032685;28;20295;-61
2022/11/20 01:57:06;;;;;;;14.43;9.43;;;;;;;;;;5012470;28;20227;-61
2022/11/20 01:59:31;;;;;;;15.43;9.40;;;;;;;;;;5029794;28;20207;-62
2022/11/20 02:01:56;;;;;;;16.73;9.90;;;;;;;;;;5014997;28;20285;-61
2022/11/20 02:04:22;;;;;;;14.50;9.30;;;;;;;;;;5032983;28;20243;-61
2022/11/20 02:06:49;;;;;;;15.17;9.57;;;;;;;;;;5033396;28;20590;-61
2022/11/20 02:09:15;;;;;;;15.10;10.10;;;;;;;;;;5032281;28;20270;-62
2022/11/20 02:11:40;;;;;;;17.23;9.10;;;;;;;;;;5033225;28;20208;-61
2022/11/20 02:14:05;;;;;;;15.13;9.33;;;;;;;;;;5034679;28;20212;-62
2022/11/20 02:16:32;;;;;;;15.90;9.97;;;;;;;;;;5032605;28;20558;-62
2022/11/20 02:18:58;;;;;;;16.00;10.40;;;;;;;;;;5033514;28;20214;-61
2022/11/20 02:21:28;;;;;;;16.77;9.47;;;;;;;;;;5051376;28;20230;-62
2022/11/20 02:24:03;;;;;;;14.73;9.07;;;;;;;;;;5021784;28;20239;-62
2022/11/20 02:26:29;;;;;;;16.23;9.70;;;;;;;;;;5032871;28;20771;-61
2022/11/20 02:28:54;;;;;;;15.80;9.87;;;;;;;;;;5014927;28;20308;-62
2022/11/20 02:31:19;;;;;;;14.13;8.93;;;;;;;;;;5032471;28;21760;-61
2022/11/20 02:33:44;;;;;;;14.57;9.27;;;;;;;;;;5033134;28;20207;-61
2022/11/20 02:36:11;;;;;;;16.27;9.43;;;;;;;;;;5031467;28;20675;-62
2022/11/20 02:38:36;;;;;;;14.83;9.23;;;;;;;;;;5033129;28;20208;-61
2022/11/20 02:41:01;;;;;;;13.73;9.13;;;;;;;;;;5026904;28;20204;-61
2022/11/20 02:43:26;;;;;;;14.83;9.30;;;;;;;;;;5032097;28;20610;-62
2022/11/20 02:45:52;;;;;;;15.37;9.43;;;;;;;;;;5032866;28;20208;-62
2022/11/20 02:48:17;;;;;;;15.20;9.37;;;;;;;;;;5032547;28;20376;-61
2022/11/20 02:50:42;;;;;;;15.83;10.03;;;;;;;;;;5031880;28;20215;-62
2022/11/20 02:53:07;;;;;;;15.03;9.60;;;;;;;;;;5032209;28;20207;-61
2022/11/20 02:55:33;;;;;;;15.13;8.93;;;;;;;;;;5032833;28;20212;-61
2022/11/20 02:57:58;;;;;;;14.93;9.30;;;;;;;;;;5032068;28;20207;-62
2022/11/20 03:00:23;;;;;;;15.20;9.30;;;;;;;;;;5032205;28;20215;-62
2022/11/20 03:02:48;;;;;;;16.90;9.53;;;;;;;;;;5032479;28;20239;-62
2022/11/20 03:05:14;;;;;;;15.63;9.83;;;;;;;;;;5031436;28;20207;-61
2022/11/20 03:07:39;;;;;;;16.53;9.90;;;;;;;;;;5032213;28;20211;-61
2022/11/20 03:10:05;;;;;;;16.60;10.00;;;;;;;;;;5032158;28;20756;-61
2022/11/20 03:12:30;;;;;;;15.40;9.83;;;;;;;;;;5031619;28;20241;-62
2022/11/20 03:14:55;;;;;;;16.20;9.43;;;;;;;;;;5029777;28;20217;-62
2022/11/20 03:17:20;;;;;;;15.07;9.07;;;;;;;;;;5027675;28;20627;-62
2022/11/20 03:19:46;;;;;;;15.30;9.50;;;;;;;;;;5031716;28;20212;-61
2022/11/20 03:22:11;;;;;;;15.53;9.73;;;;;;;;;;5031476;28;20231;-61
2022/11/20 03:24:36;;;;;;;15.17;10.20;;;;;;;;;;5031574;28;20211;-62
2022/11/20 03:27:01;;;;;;;16.37;9.97;;;;;;;;;;5032011;28;20750;-62
2022/11/20 03:29:27;;;;;;;17.23;10.27;;;;;;;;;;5032182;28;20222;-62
2022/11/20 03:31:52;;;;;;;19.07;10.93;;;;;;;;;;5031438;28;20243;-62
2022/11/20 03:34:17;;;;;;;15.03;9.53;;;;;;;;;;5031885;28;21087;-61
2022/11/20 03:36:42;;;;;;;15.60;9.87;;;;;;;;;;5032115;28;20223;-62
2022/11/20 03:39:08;;;;;;;15.53;9.20;;;;;;;;;;5030868;28;20222;-62
2022/11/20 03:41:40;;;;;;;15.97;9.50;;;;;;;;;;5031938;28;20583;-62
2022/11/20 03:44:06;;;;;;;14.73;9.33;;;;;;;;;;5031806;28;20215;-61
2022/11/20 03:46:32;;;;;;;15.47;9.80;;;;;;;;;;5030087;28;20656;-62
2022/11/20 03:48:57;;;;;;;15.73;9.93;;;;;;;;;;5032498;28;20274;-62
2022/11/20 03:51:23;;;;;;;15.27;9.47;;;;;;;;;;5031484;28;20270;-62
2022/11/20 03:53:49;;;;;;;15.77;10.00;;;;;;;;;;5031279;28;20223;-62
2022/11/20 03:56:15;;;;;;;16.00;9.83;;;;;;;;;;5031657;28;20212;-61
2022/11/20 03:58:40;;;;;;;16.77;10.03;;;;;;;;;;5032218;28;20239;-61
2022/11/20 04:01:06;;;;;;;14.97;9.60;;;;;;;;;;5030780;28;20290;-61
2022/11/20 04:03:31;;;;;;;16.07;10.13;;;;;;;;;;5031746;28;20231;-62
2022/11/20 04:06:01;;;;;;;15.53;9.40;;;;;;;;;;5032041;28;20278;-62
2022/11/20 04:08:26;;;;;;;15.70;10.27;;;;;;;;;;5030556;28;20690;-62
2022/11/20 04:10:51;;;;;;;15.90;9.83;;;;;;;;;;5016413;28;20219;-61
2022/11/20 04:13:16;;;;;;;15.80;9.37;;;;;;;;;;5014120;28;20706;-61
2022/11/20 04:15:42;;;;;;;16.00;9.53;;;;;;;;;;5016131;28;20242;-61
2022/11/20 04:18:07;;;;;;;15.70;10.23;;;;;;;;;;5024178;28;20220;-61
2022/11/20 04:20:32;;;;;;;16.70;10.40;;;;;;;;;;5025490;28;20240;-61
2022/11/20 04:22:58;;;;;;;16.50;10.47;;;;;;;;;;5025687;28;20228;-61
2022/11/20 04:25:23;;;;;;;16.90;11.00;;;;;;;;;;5025228;28;20243;-61
2022/11/20 04:27:48;;;;;;;15.27;9.40;;;;;;;;;;5026090;28;20219;-61
2022/11/20 04:30:13;;;;;;;16.47;10.33;;;;;;;;;;5023975;28;20219;-61
2022/11/20 04:32:39;;;;;;;15.40;9.60;;;;;;;;;;5021810;28;20694;-61
2022/11/20 04:35:04;;;;;;;15.67;9.83;;;;;;;;;;5016294;28;20450;-61
2022/11/20 04:37:29;;;;;;;15.87;9.53;;;;;;;;;;5017756;28;20307;-61
2022/11/20 04:39:55;;;;;;;18.47;9.93;;;;;;;;;;5020779;28;20243;-61
2022/11/20 04:42:29;;;;;;;15.50;9.67;;;;;;;;;;5024238;28;20266;-61
2022/11/20 04:44:54;;;;;;;17.37;10.67;;;;;;;;;;5025489;28;20309;-61
2022/11/20 04:47:20;;;;;;;16.87;10.57;;;;;;;;;;5024779;28;20754;-61
2022/11/20 04:49:45;;;;;;;16.40;10.57;;;;;;;;;;5024665;28;20745;-61
2022/11/20 04:52:10;;;;;;;18.20;10.40;;;;;;;;;;5025039;28;20571;-61
2022/11/20 04:54:35;;;;;;;15.93;10.03;;;;;;;;;;5023308;28;20222;-61
2022/11/20 04:57:01;;;;;;;17.50;10.60;;;;;;;;;;5016656;28;20770;-61
2022/11/20 04:59:26;;;;;;;18.47;10.27;;;;;;;;;;5016809;28;20302;-61
2022/11/20 05:01:51;;;;;;;17.00;10.53;;;;;;;;;;5018235;28;20318;-61
2022/11/20 05:04:16;;;;;;;16.77;10.97;;;;;;;;;;5023909;28;20235;-61
2022/11/20 05:06:42;;;;;;;15.97;9.80;;;;;;;;;;5025003;28;20326;-61
2022/11/20 05:09:07;;;;;;;16.63;10.10;;;;;;;;;;5024532;28;20576;-61
2022/11/20 05:11:32;;;;;;;16.63;10.43;;;;;;;;;;5024350;28;20208;-61
2022/11/20 05:13:58;;;;;;;16.77;10.23;;;;;;;;;;5031302;28;20691;-61
2022/11/20 05:16:23;;;;;;;18.10;11.13;;;;;;;;;;5033637;28;20219;-61
2022/11/20 05:18:49;;;;;;;17.37;11.07;;;;;;;;;;5033750;28;20212;-61
2022/11/20 05:21:14;;;;;;;17.83;11.20;;;;;;;;;;5001208;28;20727;-61
2022/11/20 05:23:39;;;;;;;18.27;10.93;;;;;;;;;;5007998;28;20250;-61
2022/11/20 05:26:05;;;;;;;18.63;10.67;;;;;;;;;;5032098;28;20686;-61
2022/11/20 05:28:30;;;;;;;18.50;10.87;;;;;;;;;;5034611;28;20694;-61
2022/11/20 05:30:56;;;;;;;18.30;11.00;;;;;;;;;;5017271;28;20262;-61
2022/11/20 05:33:21;;;;;;;19.03;11.60;;;;;;;;;;5013200;28;20579;-61
2022/11/20 05:35:47;;;;;;;22.00;11.77;;;;;;;;;;5014619;28;20215;-61
2022/11/20 05:38:13;;;;;;;16.47;10.70;;;;;;;;;;5013452;28;20208;-61
2022/11/20 05:40:38;;;;;;;18.90;11.63;;;;;;;;;;5013944;28;20211;-61
2022/11/20 05:43:03;;;;;;;19.73;11.50;;;;;;;;;;5013796;28;20271;-61
2022/11/20 05:45:29;;;;;;;18.97;10.90;;;;;;;;;;5012238;28;20208;-61
2022/11/20 05:47:57;;;;;;;17.77;10.93;;;;;;;;;;5014248;28;20599;-61
2022/11/20 05:50:22;;;;;;;17.77;11.53;;;;;;;;;;5013573;28;20212;-61
2022/11/20 05:52:47;;;;;;;17.33;10.93;;;;;;;;;;5013361;28;20243;-61
2022/11/20 05:55:13;;;;;;;19.53;12.07;;;;;;;;;;5013333;28;20734;-61
2022/11/20 05:57:38;;;;;;;20.90;11.37;;;;;;;;;;5014139;28;20219;-61
2022/11/20 06:00:03;;;;;;;18.67;11.17;;;;;;;;;;5012939;28;20219;-61
2022/11/20 06:02:29;;;;;;;17.73;10.90;;;;;;;;;;5013735;28;20296;-61
2022/11/20 06:04:54;;;;;;;17.70;10.90;;;;;;;;;;5013872;28;20224;-61
2022/11/20 06:07:19;;;;;;;18.10;11.00;;;;;;;;;;5012890;28;20307;-61
2022/11/20 06:09:44;;;;;;;17.40;10.87;;;;;;;;;;4996154;28;20212;-61
2022/11/20 06:12:10;;;;;;;18.73;11.47;;;;;;;;;;5013000;28;20224;-61
2022/11/20 06:14:35;;;;;;;19.00;10.60;;;;;;;;;;5010582;28;20215;-61
2022/11/20 06:17:00;;;;;;;18.10;11.27;;;;;;;;;;5032688;28;20750;-61
2022/11/20 06:19:25;;;;;;;20.27;11.93;;;;;;;;;;5029728;28;20218;-61
2022/11/20 06:21:51;;;;;;;19.00;11.77;;;;;;;;;;5039877;28;20215;-61
2022/11/20 06:24:16;;;;;;;17.27;10.23;;;;;;;;;;5050179;28;20239;-61
2022/11/20 06:26:41;;;;;;;18.37;11.37;;;;;;;;;;5045176;28;20195;-61
2022/11/20 06:29:07;;;;;;;17.17;11.00;;;;;;;;;;5051970;28;20215;-61
2022/11/20 06:31:34;;;;;;;18.97;11.87;;;;;;;;;;5052884;28;20318;-61
2022/11/20 06:34:00;;;;;;;16.57;10.20;;;;;;;;;;5052766;28;20689;-61
2022/11/20 06:36:25;;;;;;;19.17;11.07;;;;;;;;;;5043771;28;20210;-61
2022/11/20 06:38:50;;;;;;;18.27;10.63;;;;;;;;;;5052650;28;20213;-61
2022/11/20 06:41:17;;;;;;;18.87;10.43;;;;;;;;;;5032426;28;20249;-61
2022/11/20 06:43:42;;;;;;;17.00;10.90;;;;;;;;;;5032280;28;20675;-61
2022/11/20 06:46:08;;;;;;;17.80;11.07;;;;;;;;;;5011568;28;20255;-61
2022/11/20 06:48:33;;;;;;;18.97;11.70;;;;;;;;;;5029723;28;20219;-61
2022/11/20 06:50:59;;;;;;;18.00;11.43;;;;;;;;;;5030865;28;20219;-61
2022/11/20 06:53:24;;;;;;;19.07;10.33;;;;;;;;;;5020788;28;20298;-61
2022/11/20 06:55:49;;;;;;;18.33;10.80;;;;;;;;;;5021031;28;20243;-62
2022/11/20 06:58:15;;;;;;;19.87;11.67;;;;;;;;;;5014925;28;20625;-61
2022/11/20 07:00:40;;;;;;;17.23;10.73;;;;;;;;;;5013342;28;20211;-61
2022/11/20 07:03:06;;;;;;;18.77;11.30;;;;;;;;;;5012229;28;20240;-61
2022/11/20 07:05:31;;;;;;;16.50;10.30;;;;;;;;;;5022545;28;20211;-61
2022/11/20 07:07:57;;;;;;;16.47;10.73;;;;;;;;;;5019624;28;20219;-61
2022/11/20 07:10:22;;;;;;;17.33;10.73;;;;;;;;;;5006448;28;20699;-61
2022/11/20 07:12:49;;;;;;;18.40;12.10;;;;;;;;;;5010146;28;20243;-62
2022/11/20 07:15:14;;;;;;;20.80;12.20;;;;;;;;;;5010480;28;20501;-62
2022/11/20 07:17:40;;;;;;;19.53;12.10;;;;;;;;;;5015559;28;20215;-61
2022/11/20 07:20:05;;;;;;;17.77;11.00;;;;;;;;;;5012189;28;20222;-61
2022/11/20 07:22:30;;;;;;;17.97;11.83;;;;;;;;;;5010019;28;20773;-61
2022/11/20 07:24:56;;;;;;;17.17;10.83;;;;;;;;;;5007715;28;20208;-61
2022/11/20 07:27:21;;;;;;;20.77;11.63;;;;;;;;;;5013725;28;20222;-62
2022/11/20 07:29:46;;;;;;;17.90;10.80;;;;;;;;;;5017926;28;20216;-61
2022/11/20 07:32:12;;;;;;;16.83;10.67;;;;;;;;;;4992640;28;20215;-61
2022/11/20 07:34:37;;;;;;;20.20;11.50;;;;;;;;;;5008897;28;20219;-61
2022/11/20 07:37:02;;;;;;;17.87;11.10;;;;;;;;;;5010422;28;20648;-61
2022/11/20 07:39:27;;;;;;;18.17;11.37;;;;;;;;;;5015049;28;20211;-62
2022/11/20 07:41:53;;;;;;;21.43;12.33;;;;;;;;;;5014343;28;20286;-62
2022/11/20 07:44:18;;;;;;;19.97;11.77;;;;;;;;;;5010878;28;20224;-61
2022/11/20 07:46:43;;;;;;;18.07;11.63;;;;;;;;;;5028205;28;20265;-61
2022/11/20 07:49:08;;;;;;;24.83;13.10;;;;;;;;;;5029734;28;20215;-61
2022/11/20 07:51:34;;;;;;;22.80;12.93;;;;;;;;;;5029335;28;20231;-61
2022/11/20 07:53:59;;;;;;;21.30;13.73;;;;;;;;;;5025363;28;20963;-61
2022/11/20 07:56:24;;;;;;;24.50;16.77;;;;;;;;;;5020413;28;20430;-61
2022/11/20 07:58:49;;;;;;;29.03;15.50;;;;;;;;;;5022162;28;20571;-62
2022/11/20 08:01:15;;;;;;;70.93;49.43;;;;;;;;;;5024260;28;20261;-62
2022/11/20 08:03:40;;;;;;;34.27;20.43;;;;;;;;;;5029924;28;20594;-62
2022/11/20 08:06:05;;;;;;;25.30;15.73;;;;;;;;;;5028730;28;20204;-62
2022/11/20 08:08:31;;;;;;;28.83;16.00;;;;;;;;;;5029436;28;21033;-62
2022/11/20 08:14:11;;;;;;;28.83;16.90;;;;;;;;;;5029170;28;20216;-61
2022/11/20 08:16:25;;;;;;;34.83;17.17;;;;;;;;;;5026318;28;20774;-61
2022/11/20 08:18:51;;;;;;;30.63;15.80;;;;;;;;;;5021781;28;20208;-60
2022/11/20 08:21:16;;;;;;;30.90;16.77;;;;;;;;;;4990247;28;20203;-61
2022/11/20 08:23:41;;;;;;;30.60;18.53;;;;;;;;;;5024305;28;20212;-61
2022/11/20 08:26:07;;;;;;;36.10;18.17;;;;;;;;;;5028829;28;20736;-61
2022/11/20 08:28:32;;;;;;;29.33;18.23;;;;;;;;;;5028225;28;20734;-61
2022/11/20 08:30:58;;;;;;;27.77;17.30;;;;;;;;;;5028926;28;20223;-61
2022/11/20 08:33:23;;;;;;;31.00;17.23;;;;;;;;;;5028747;28;20752;-63
2022/11/20 08:35:49;;;;;;;33.77;20.40;;;;;;;;;;5028563;28;20504;-63
2022/11/20 08:38:14;;;;;;;29.63;17.07;;;;;;;;;;5028453;28;20461;-63
2022/11/20 08:40:39;;;;;;;30.53;16.57;;;;;;;;;;5020633;28;20666;-63
2022/11/20 08:43:04;;;;;;;32.07;17.67;;;;;;;;;;5013969;28;20413;-63
2022/11/20 08:45:30;;;;;;;29.97;17.87;;;;;;;;;;5022178;28;20223;-63
2022/11/20 08:47:59;;;;;;;30.77;17.87;;;;;;;;;;5027689;28;20211;-64
2022/11/20 08:50:24;;;;;;;28.37;16.20;;;;;;;;;;5010204;28;20224;-62
2022/11/20 08:52:49;;;;;;;27.00;16.17;;;;;;;;;;5029096;28;20663;-61
2022/11/20 08:55:15;;;;;;;28.90;17.57;;;;;;;;;;5027931;28;20207;-61
2022/11/20 08:57:40;;;;;;;28.07;17.70;;;;;;;;;;5029141;28;20211;-60
2022/11/20 09:00:06;;;;;;;28.17;17.80;;;;;;;;;;5027858;28;20211;-60
2022/11/20 09:02:32;;;;;;;32.40;19.57;;;;;;;;;;5023069;28;20445;-61
2022/11/20 09:04:57;;;;;;;31.33;20.27;;;;;;;;;;5020994;28;20780;-61
2022/11/20 09:07:22;;;;;;;25.33;16.20;;;;;;;;;;5020871;28;20433;-63
2022/11/20 09:09:47;;;;;;;26.30;17.23;;;;;;;;;;5024953;28;20512;-61
2022/11/20 09:12:13;;;;;;;25.73;16.37;;;;;;;;;;5028015;28;20220;-62
2022/11/20 09:14:38;;;;;;;26.93;15.83;;;;;;;;;;5028438;28;20222;-62
2022/11/20 09:17:04;;;;;;;25.03;16.20;;;;;;;;;;5027219;28;20262;-62
2022/11/20 09:19:29;;;;;;;27.17;16.30;;;;;;;;;;5028802;28;20211;-62
2022/11/20 09:21:54;;;;;;;26.83;16.57;;;;;;;;;;5024488;28;20230;-62
2022/11/20 09:24:20;;;;;;;25.73;16.70;;;;;;;;;;5025424;28;20638;-62
2022/11/20 09:26:46;;;;;;;24.53;16.80;;;;;;;;;;5020720;28;20351;-62
2022/11/20 09:29:11;;;;;;;25.67;16.17;;;;;;;;;;5019944;28;20212;-62
2022/11/20 09:31:36;;;;;;;24.23;16.50;;;;;;;;;;5022264;28;20239;-62
2022/11/20 09:34:02;;;;;;;27.50;16.67;;;;;;;;;;5027770;28;20212;-62
2022/11/20 09:36:27;;;;;;;27.00;16.80;;;;;;;;;;5025566;28;20220;-62
2022/11/20 09:38:53;;;;;;;27.83;17.60;;;;;;;;;;5027379;28;20216;-62
2022/11/20 09:41:18;;;;;;;27.07;17.87;;;;;;;;;;5027617;28;20683;-62
2022/11/20 09:43:57;;;;;;;26.37;16.87;;;;;;;;;;5027703;28;20748;-62
2022/11/20 09:46:24;;;;;;;25.60;17.23;;;;;;;;;;5025439;28;20211;-62
2022/11/20 09:48:53;;;;;;;25.73;17.20;;;;;;;;;;5019910;28;20931;-63
2022/11/20 09:51:19;;;;;;;27.63;17.97;;;;;;;;;;5001226;28;20228;-62
2022/11/20 09:53:46;;;;;;;25.23;17.43;;;;;;;;;;5020669;28;20630;-62
2022/11/20 09:56:11;;;;;;;28.10;18.10;;;;;;;;;;5009271;28;20624;-63
2022/11/20 09:58:38;;;;;;;26.80;17.47;;;;;;;;;;5027384;28;20774;-62
2022/11/20 10:01:12;;;;;;;26.70;17.87;;;;;;;;;;5024563;28;20242;-62
2022/11/20 10:03:39;;;;;;;27.50;17.50;;;;;;;;;;5027734;28;20313;-62
2022/11/20 10:06:04;;;;;;;29.93;19.57;;;;;;;;;;5008475;28;20212;-62
2022/11/20 10:08:33;;;;;;;26.63;17.77;;;;;;;;;;5027243;28;20208;-62
2022/11/20 10:11:02;;;;;;;29.77;19.17;;;;;;;;;;5003158;28;20627;-63
2022/11/20 10:13:34;;;;;;;29.73;19.90;;;;;;;;;;5001009;28;20223;-62
2022/11/20 10:16:14;;;;;;;30.67;19.90;;;;;;;;;;5019324;28;20228;-63
2022/11/20 10:18:58;;;;;;;29.92;22.23;;;;;;;;;;5024201;28;20437;-62
2022/11/20 10:21:33;;;;;;;29.40;18.83;;;;;;;;;;5025818;28;20294;-61
2022/11/20 10:24:14;;;;;;;29.20;19.27;;;;;;;;;;5027745;28;20212;-62
2022/11/20 10:26:43;;;;;;;25.13;17.53;;;;;;;;;;5008301;28;20219;-63
2022/11/20 10:29:08;;;;;;;28.03;18.67;;;;;;;;;;5009112;28;20304;-62
2022/11/20 10:31:35;;;;;;;27.73;17.90;;;;;;;;;;5026711;28;20679;-63
2022/11/20 10:34:02;;;;;;;28.77;19.40;;;;;;;;;;5018334;28;20219;-62
2022/11/20 10:36:36;;;;;;;28.33;17.87;;;;;;;;;;5018998;28;20219;-63
2022/11/20 10:39:04;;;;;;;26.90;18.17;;;;;;;;;;5002580;28;20241;-63
2022/11/20 10:41:30;;;;;;;25.90;16.80;;;;;;;;;;5007872;28;20208;-63
2022/11/20 10:44:00;;;;;;;25.63;17.10;;;;;;;;;;5009364;28;20572;-62
2022/11/20 10:46:25;;;;;;;25.50;16.73;;;;;;;;;;5024439;28;20211;-63
2022/11/20 10:48:51;;;;;;;29.10;18.67;;;;;;;;;;5024784;28;20219;-63
2022/11/20 10:51:21;;;;;;;26.30;17.77;;;;;;;;;;5025029;28;20287;-63
2022/11/20 10:53:55;;;;;;;31.40;20.37;;;;;;;;;;5026468;28;20597;-63
2022/11/20 10:56:20;;;;;;;26.80;18.43;;;;;;;;;;5017052;28;20300;-63
2022/11/20 10:58:54;;;;;;;30.77;20.00;;;;;;;;;;5018387;28;20687;-63
2022/11/20 11:01:22;;;;;;;31.27;19.27;;;;;;;;;;5018964;28;20231;-62
2022/11/20 11:03:48;;;;;;;28.07;18.93;;;;;;;;;;5024958;28;20219;-63
2022/11/20 11:06:17;;;;;;;27.73;18.23;;;;;;;;;;5024445;28;20620;-63
2022/11/20 11:08:42;;;;;;;27.13;19.30;;;;;;;;;;5030223;28;20212;-63
2022/11/20 11:11:18;;;;;;;29.97;18.70;;;;;;;;;;5031243;28;20212;-63
2022/11/20 11:13:44;;;;;;;27.70;17.10;;;;;;;;;;5031355;28;20215;-63
2022/11/20 11:16:20;;;;;;;24.80;17.30;;;;;;;;;;5031130;28;20354;-63
2022/11/20 11:18:45;;;;;;;25.00;17.20;;;;;;;;;;5011023;28;20212;-63
2022/11/20 11:21:10;;;;;;;28.57;17.50;;;;;;;;;;5011085;28;20734;-63
2022/11/20 11:23:39;;;;;;;25.50;18.07;;;;;;;;;;5015214;28;20611;-62
2022/11/20 11:26:05;;;;;;;24.20;17.30;;;;;;;;;;5024843;28;20204;-63
2022/11/20 11:28:31;;;;;;;27.33;19.67;;;;;;;;;;5026463;28;20215;-65
2022/11/20 11:30:56;;;;;;;28.03;17.90;;;;;;;;;;5024146;28;20218;-63
2022/11/20 11:33:23;;;;;;;25.93;18.07;;;;;;;;;;5024381;28;20626;-63
2022/11/20 11:35:52;;;;;;;24.67;17.50;;;;;;;;;;5017789;28;20430;-63
2022/11/20 11:38:19;;;;;;;24.63;17.83;;;;;;;;;;5017071;28;20343;-63
2022/11/20 11:40:45;;;;;;;27.40;17.53;;;;;;;;;;5018750;28;20222;-63
2022/11/20 11:46:01;;;;;;;26.10;17.10;;;;;;;;;;5023828;28;20247;-63
2022/11/20 11:48:26;;;;;;;30.57;17.63;;;;;;;;;;5024840;28;20239;-63
2022/11/20 11:50:52;;;;;;;27.30;18.83;;;;;;;;;;5025951;28;20231;-63
2022/11/20 11:53:18;;;;;;;26.70;18.20;;;;;;;;;;5024522;28;20247;-63
2022/11/20 11:55:46;;;;;;;28.70;18.83;;;;;;;;;;5023859;28;20254;-61
2022/11/20 11:58:17;;;;;;;27.60;18.77;;;;;;;;;;5016456;28;20230;-65
2022/11/20 12:00:51;;;;;;;26.40;18.60;;;;;;;;;;5016137;28;20216;-63
2022/11/20 12:03:21;;;;;;;26.77;18.80;;;;;;;;;;5018114;28;20236;-63
2022/11/20 12:05:48;;;;;;;29.27;21.47;;;;;;;;;;5023838;28;20560;-64
2022/11/20 12:08:18;;;;;;;30.53;22.17;;;;;;;;;;5024133;28;20216;-63
2022/11/20 12:10:49;;;;;;;30.27;20.57;;;;;;;;;;5024403;28;20242;-63
2022/11/20 12:13:21;;;;;;;30.23;19.33;;;;;;;;;;5023234;28;20250;-63
2022/11/20 12:15:47;;;;;;;30.63;18.37;;;;;;;;;;5024865;28;20229;-63
2022/11/20 12:18:15;;;;;;;27.80;18.57;;;;;;;;;;5024749;28;20774;-63
2022/11/20 12:20:41;;;;;;;29.23;19.50;;;;;;;;;;5015585;28;20222;-63
2022/11/20 12:23:09;;;;;;;29.23;18.53;;;;;;;;;;5014432;28;20334;-63
2022/11/20 12:25:35;;;;;;;29.00;18.90;;;;;;;;;;5017568;28;20203;-63
2022/11/20 12:28:03;;;;;;;33.70;22.87;;;;;;;;;;5023968;28;20212;-63
2022/11/20 12:30:29;;;;;;;28.83;18.73;;;;;;;;;;5025958;28;20695;-64
2022/11/20 12:33:13;;;;;;;30.43;19.37;;;;;;;;;;5028932;28;20234;-64
2022/11/20 12:35:57;;;;;;;28.10;17.90;;;;;;;;;;5028794;28;20581;-63
2022/11/20 12:38:29;;;;;;;87.90;40.60;;;;;;;;;;5028459;28;20211;-63
2022/11/20 12:40:56;;;;;;;35.30;20.73;;;;;;;;;;5020853;28;20343;-63
2022/11/20 12:46:17;;;;;;;48.87;26.67;;;;;;;;;;5019777;28;20303;-63
2022/11/20 12:48:49;;;;;;;177.63;71.20;;;;;;;;;;5023113;28;20298;-63
2022/11/20 12:51:27;;;;;;;89.07;50.77;;;;;;;;;;5028793;28;20809;-63
2022/11/20 12:53:57;;;;;;;31.33;22.17;;;;;;;;;;5028538;28;20635;-62
2022/11/20 12:56:29;;;;;;;27.53;17.97;;;;;;;;;;5027785;28;20741;-62
2022/11/20 12:58:55;;;;;;;30.67;19.90;;;;;;;;;;5028575;28;20223;-62
2022/11/20 13:01:49;;;;;;;30.07;21.50;;;;;;;;;;5027314;28;20617;-62
2022/11/20 13:04:14;;;;;;;27.27;18.00;;;;;;;;;;5024870;28;20290;-62
2022/11/20 13:06:41;;;;;;;26.00;18.23;;;;;;;;;;5020944;28;20580;-62
2022/11/20 13:09:08;;;;;;;30.27;19.20;;;;;;;;;;5018745;28;20219;-63
2022/11/20 13:11:39;;;;;;;26.93;18.03;;;;;;;;;;5021808;28;20573;-62
2022/11/20 13:14:16;;;;;;;30.40;19.33;;;;;;;;;;5028479;28;20216;-63
2022/11/20 13:16:41;;;;;;;27.73;18.87;;;;;;;;;;5026036;28;20211;-62
2022/11/20 13:19:09;;;;;;;32.37;19.87;;;;;;;;;;5028117;28;20281;-62
2022/11/20 13:21:36;;;;;;;31.53;19.83;;;;;;;;;;5028430;28;20683;-62
2022/11/20 13:24:05;;;;;;;32.97;19.20;;;;;;;;;;5027534;28;20215;-62
2022/11/20 13:26:30;;;;;;;29.83;19.20;;;;;;;;;;5027603;28;20200;-62
2022/11/20 13:29:08;;;;;;;29.30;17.83;;;;;;;;;;5020822;28;20212;-62
2022/11/20 13:31:34;;;;;;;31.70;19.63;;;;;;;;;;5017416;28;20369;-63
2022/11/20 13:34:00;;;;;;;30.80;19.73;;;;;;;;;;5021233;28;20215;-62
2022/11/20 13:36:26;;;;;;;34.13;21.80;;;;;;;;;;5026274;28;20278;-62
2022/11/20 13:38:52;;;;;;;35.03;22.10;;;;;;;;;;5027736;28;20247;-62
2022/11/20 13:41:28;;;;;;;33.00;21.07;;;;;;;;;;5026383;28;20235;-62
2022/11/20 13:43:53;;;;;;;33.60;20.40;;;;;;;;;;5026629;28;20211;-62
2022/11/20 13:46:24;;;;;;;36.50;21.67;;;;;;;;;;5027679;28;20208;-62
2022/11/20 13:48:49;;;;;;;34.67;22.37;;;;;;;;;;5027746;28;20302;-62
2022/11/20 13:51:24;;;;;;;34.07;21.77;;;;;;;;;;5018683;28;20307;-62
2022/11/20 13:53:52;;;;;;;39.27;25.87;;;;;;;;;;5019173;28;20635;-62
2022/11/20 13:56:36;;;;;;;37.43;24.30;;;;;;;;;;5020581;28;20212;-63
2022/11/20 13:59:06;;;;;;;36.23;23.33;;;;;;;;;;5021565;28;20685;-63
2022/11/20 14:01:31;;;;;;;70.77;37.83;;;;;;;;;;5006413;28;20207;-62
2022/11/20 14:03:57;;;;;;;82.87;46.07;;;;;;;;;;5026921;28;20314;-63
2022/11/20 14:06:23;;;;;;;38.27;24.50;;;;;;;;;;5025909;28;20212;-63
2022/11/20 14:08:48;;;;;;;34.23;22.33;;;;;;;;;;5027048;28;20223;-63
2022/11/20 14:11:16;;;;;;;36.50;23.43;;;;;;;;;;5026885;28;20215;-63
2022/11/20 14:13:54;;;;;;;48.10;27.93;;;;;;;;;;5019072;28;20361;-63
2022/11/20 14:16:20;;;;;;;49.70;27.23;;;;;;;;;;5017869;28;20512;-63
2022/11/20 14:18:45;;;;;;;31.53;21.30;;;;;;;;;;5020089;28;20208;-63
2022/11/20 14:21:10;;;;;;;33.77;21.27;;;;;;;;;;5025863;28;20540;-62
2022/11/20 14:23:36;;;;;;;32.80;20.83;;;;;;;;;;5027521;28;20667;-62
2022/11/20 14:26:01;;;;;;;35.30;22.13;;;;;;;;;;5026061;28;20270;-63
2022/11/20 14:28:27;;;;;;;37.13;23.07;;;;;;;;;;5027224;28;20204;-62
2022/11/20 14:30:52;;;;;;;36.67;23.20;;;;;;;;;;5018063;28;20211;-61